Terminal Aerodrome Forecast
Issued by NWS

Home | Current Version | Previous Version | Text Only | Print | Product List | Glossary On
Versions: 1 2 3 4 5 6 7 8 9 10 11 12
794
FTUS42 TJSJ 121720
TAFJSJ
TAF
TJSJ 121720Z 1218/1318 07015KT P6SM FEW026 SCT030
     FM122200 10006KT P6SM SCT030
     FM131400 07016KT P6SM FEW030 SCT060=

USA.gov is the U.S. government's official web portal to all federal, state and local government web resources and services.